sensor_id;sensor_type;location;lat;lon;timestamp;P1;durP1;ratioP1;P2;durP2;ratioP2
3369;SDS011;42042;51.948;7.628;2023-02-11T00:01:18;51.15;;;27.45;;
3369;SDS011;42042;51.948;7.628;2023-02-11T00:03:47;44.67;;;30.35;;
3369;SDS011;42042;51.948;7.628;2023-02-11T00:06:14;37.78;;;23.70;;
3369;SDS011;42042;51.948;7.628;2023-02-11T00:08:41;52.78;;;31.83;;
3369;SDS011;42042;51.948;7.628;2023-02-11T00:11:11;49.67;;;29.10;;
3369;SDS011;42042;51.948;7.628;2023-02-11T00:13:38;39.78;;;25.38;;
3369;SDS011;42042;51.948;7.628;2023-02-11T00:16:06;44.75;;;26.83;;
3369;SDS011;42042;51.948;7.628;2023-02-11T00:18:33;51.53;;;29.65;;
3369;SDS011;42042;51.948;7.628;2023-02-11T00:21:05;52.05;;;30.85;;
3369;SDS011;42042;51.948;7.628;2023-02-11T00:23:33;46.72;;;29.80;;
3369;SDS011;42042;51.948;7.628;2023-02-11T00:26:00;46.10;;;28.90;;
3369;SDS011;42042;51.948;7.628;2023-02-11T00:28:28;53.17;;;31.08;;
3369;SDS011;42042;51.948;7.628;2023-02-11T00:30:55;58.80;;;31.65;;
3369;SDS011;42042;51.948;7.628;2023-02-11T00:33:22;53.33;;;29.20;;
3369;SDS011;42042;51.948;7.628;2023-02-11T00:35:50;53.80;;;29.90;;
3369;SDS011;42042;51.948;7.628;2023-02-11T00:38:18;51.55;;;29.45;;
3369;SDS011;42042;51.948;7.628;2023-02-11T00:40:45;45.88;;;28.15;;
3369;SDS011;42042;51.948;7.628;2023-02-11T00:43:13;58.75;;;30.27;;
3369;SDS011;42042;51.948;7.628;2023-02-11T00:45:40;49.08;;;29.10;;
3369;SDS011;42042;51.948;7.628;2023-02-11T00:48:07;48.72;;;28.05;;
3369;SDS011;42042;51.948;7.628;2023-02-11T00:50:34;48.67;;;29.90;;
3369;SDS011;42042;51.948;7.628;2023-02-11T00:53:01;55.85;;;27.50;;
3369;SDS011;42042;51.948;7.628;2023-02-11T00:55:30;47.63;;;27.27;;
3369;SDS011;42042;51.948;7.628;2023-02-11T00:57:57;46.80;;;25.63;;
3369;SDS011;42042;51.948;7.628;2023-02-11T01:00:24;41.28;;;24.38;;
3369;SDS011;42042;51.948;7.628;2023-02-11T01:02:52;40.30;;;22.98;;
3369;SDS011;42042;51.948;7.628;2023-02-11T01:05:19;45.03;;;27.55;;
3369;SDS011;42042;51.948;7.628;2023-02-11T01:07:46;42.28;;;28.60;;
3369;SDS011;42042;51.948;7.628;2023-02-11T01:10:14;51.10;;;27.25;;
3369;SDS011;42042;51.948;7.628;2023-02-11T01:12:42;50.03;;;29.55;;
3369;SDS011;42042;51.948;7.628;2023-02-11T01:15:10;50.55;;;26.73;;
3369;SDS011;42042;51.948;7.628;2023-02-11T01:17:37;47.28;;;28.60;;
3369;SDS011;42042;51.948;7.628;2023-02-11T01:20:06;60.95;;;29.85;;
3369;SDS011;42042;51.948;7.628;2023-02-11T01:22:33;51.08;;;26.30;;
3369;SDS011;42042;51.948;7.628;2023-02-11T01:25:03;44.00;;;28.00;;
3369;SDS011;42042;51.948;7.628;2023-02-11T01:27:31;48.13;;;28.88;;
3369;SDS011;42042;51.948;7.628;2023-02-11T01:29:59;43.85;;;27.45;;
3369;SDS011;42042;51.948;7.628;2023-02-11T01:32:27;46.22;;;23.60;;
3369;SDS011;42042;51.948;7.628;2023-02-11T01:34:54;45.88;;;26.08;;
3369;SDS011;42042;51.948;7.628;2023-02-11T01:37:21;42.42;;;26.80;;
3369;SDS011;42042;51.948;7.628;2023-02-11T01:39:49;43.25;;;26.10;;
3369;SDS011;42042;51.948;7.628;2023-02-11T01:42:16;47.90;;;27.55;;
3369;SDS011;42042;51.948;7.628;2023-02-11T01:44:43;42.00;;;27.25;;
3369;SDS011;42042;51.948;7.628;2023-02-11T01:47:12;50.80;;;27.27;;
3369;SDS011;42042;51.948;7.628;2023-02-11T01:49:40;37.75;;;25.38;;
3369;SDS011;42042;51.948;7.628;2023-02-11T01:52:09;43.67;;;25.02;;
3369;SDS011;42042;51.948;7.628;2023-02-11T01:54:39;39.15;;;25.90;;
3369;SDS011;42042;51.948;7.628;2023-02-11T01:57:26;44.92;;;26.42;;
3369;SDS011;42042;51.948;7.628;2023-02-11T01:59:57;46.00;;;24.92;;
3369;SDS011;42042;51.948;7.628;2023-02-11T02:02:28;42.70;;;24.23;;
3369;SDS011;42042;51.948;7.628;2023-02-11T02:04:58;42.25;;;24.52;;
3369;SDS011;42042;51.948;7.628;2023-02-11T02:07:27;41.70;;;27.08;;
3369;SDS011;42042;51.948;7.628;2023-02-11T02:10:00;34.00;;;20.30;;
3369;SDS011;42042;51.948;7.628;2023-02-11T02:12:29;41.53;;;27.65;;
3369;SDS011;42042;51.948;7.628;2023-02-11T02:17:45;48.25;;;24.13;;
3369;SDS011;42042;51.948;7.628;2023-02-11T02:23:15;38.47;;;22.63;;
3369;SDS011;42042;51.948;7.628;2023-02-11T02:28:35;35.80;;;23.20;;
3369;SDS011;42042;51.948;7.628;2023-02-11T02:31:09;33.58;;;22.00;;
3369;SDS011;42042;51.948;7.628;2023-02-11T02:33:42;39.50;;;23.75;;
3369;SDS011;42042;51.948;7.628;2023-02-11T02:36:13;35.00;;;22.45;;
3369;SDS011;42042;51.948;7.628;2023-02-11T02:38:43;36.30;;;22.08;;
3369;SDS011;42042;51.948;7.628;2023-02-11T02:41:13;34.30;;;21.45;;
3369;SDS011;42042;51.948;7.628;2023-02-11T02:43:43;39.55;;;22.77;;
3369;SDS011;42042;51.948;7.628;2023-02-11T02:46:11;40.28;;;19.88;;
3369;SDS011;42042;51.948;7.628;2023-02-11T02:48:39;43.60;;;23.77;;
3369;SDS011;42042;51.948;7.628;2023-02-11T02:51:10;33.88;;;22.05;;
3369;SDS011;42042;51.948;7.628;2023-02-11T02:53:43;38.35;;;20.50;;
3369;SDS011;42042;51.948;7.628;2023-02-11T02:56:13;38.85;;;23.15;;
3369;SDS011;42042;51.948;7.628;2023-02-11T03:01:33;36.90;;;22.02;;
3369;SDS011;42042;51.948;7.628;2023-02-11T03:04:02;31.33;;;20.95;;
3369;SDS011;42042;51.948;7.628;2023-02-11T03:06:35;31.45;;;20.08;;
3369;SDS011;42042;51.948;7.628;2023-02-11T03:09:05;40.88;;;22.13;;
3369;SDS011;42042;51.948;7.628;2023-02-11T03:11:34;36.15;;;21.83;;
3369;SDS011;42042;51.948;7.628;2023-02-11T03:14:05;36.58;;;21.60;;
3369;SDS011;42042;51.948;7.628;2023-02-11T03:16:33;42.95;;;21.13;;
3369;SDS011;42042;51.948;7.628;2023-02-11T03:19:04;32.47;;;21.83;;
3369;SDS011;42042;51.948;7.628;2023-02-11T03:21:32;31.83;;;21.02;;
3369;SDS011;42042;51.948;7.628;2023-02-11T03:24:01;27.13;;;19.20;;
3369;SDS011;42042;51.948;7.628;2023-02-11T03:26:31;32.42;;;20.83;;
3369;SDS011;42042;51.948;7.628;2023-02-11T03:29:01;30.77;;;20.63;;
3369;SDS011;42042;51.948;7.628;2023-02-11T03:31:32;36.03;;;21.48;;
3369;SDS011;42042;51.948;7.628;2023-02-11T03:34:01;36.17;;;21.25;;
3369;SDS011;42042;51.948;7.628;2023-02-11T03:36:31;35.60;;;20.45;;
3369;SDS011;42042;51.948;7.628;2023-02-11T03:39:03;36.00;;;19.50;;
3369;SDS011;42042;51.948;7.628;2023-02-11T03:41:30;30.52;;;21.55;;
3369;SDS011;42042;51.948;7.628;2023-02-11T03:43:58;35.15;;;20.90;;
3369;SDS011;42042;51.948;7.628;2023-02-11T03:46:27;35.70;;;21.98;;
3369;SDS011;42042;51.948;7.628;2023-02-11T03:48:57;35.80;;;22.02;;
3369;SDS011;42042;51.948;7.628;2023-02-11T03:51:26;30.88;;;19.90;;
3369;SDS011;42042;51.948;7.628;2023-02-11T03:53:56;31.75;;;19.80;;
3369;SDS011;42042;51.948;7.628;2023-02-11T03:56:27;32.08;;;20.67;;
3369;SDS011;42042;51.948;7.628;2023-02-11T03:58:55;35.00;;;21.52;;
3369;SDS011;42042;51.948;7.628;2023-02-11T04:01:22;39.05;;;22.95;;
3369;SDS011;42042;51.948;7.628;2023-02-11T04:03:49;33.88;;;21.50;;
3369;SDS011;42042;51.948;7.628;2023-02-11T04:06:17;37.65;;;20.67;;
3369;SDS011;42042;51.948;7.628;2023-02-11T04:08:44;39.72;;;22.80;;
3369;SDS011;42042;51.948;7.628;2023-02-11T04:11:11;33.55;;;20.67;;
3369;SDS011;42042;51.948;7.628;2023-02-11T04:13:39;36.85;;;21.27;;
3369;SDS011;42042;51.948;7.628;2023-02-11T04:16:07;41.95;;;23.30;;
3369;SDS011;42042;51.948;7.628;2023-02-11T04:18:34;44.97;;;22.58;;
3369;SDS011;42042;51.948;7.628;2023-02-11T04:21:01;34.85;;;22.35;;
3369;SDS011;42042;51.948;7.628;2023-02-11T04:23:28;41.72;;;22.58;;
3369;SDS011;42042;51.948;7.628;2023-02-11T04:25:55;36.92;;;19.98;;
3369;SDS011;42042;51.948;7.628;2023-02-11T04:28:22;37.95;;;22.35;;
3369;SDS011;42042;51.948;7.628;2023-02-11T04:30:52;37.83;;;23.02;;
3369;SDS011;42042;51.948;7.628;2023-02-11T04:33:19;38.08;;;22.25;;
3369;SDS011;42042;51.948;7.628;2023-02-11T04:35:46;36.00;;;20.95;;
3369;SDS011;42042;51.948;7.628;2023-02-11T04:38:13;38.05;;;21.45;;
3369;SDS011;42042;51.948;7.628;2023-02-11T04:40:40;38.20;;;23.60;;
3369;SDS011;42042;51.948;7.628;2023-02-11T04:43:07;36.83;;;22.02;;
3369;SDS011;42042;51.948;7.628;2023-02-11T04:45:35;35.90;;;22.92;;
3369;SDS011;42042;51.948;7.628;2023-02-11T04:48:03;40.35;;;22.38;;
3369;SDS011;42042;51.948;7.628;2023-02-11T04:50:31;34.83;;;21.90;;
3369;SDS011;42042;51.948;7.628;2023-02-11T04:52:58;38.88;;;23.85;;
3369;SDS011;42042;51.948;7.628;2023-02-11T04:55:25;33.75;;;21.58;;
3369;SDS011;42042;51.948;7.628;2023-02-11T04:57:52;31.05;;;22.63;;
3369;SDS011;42042;51.948;7.628;2023-02-11T05:00:19;40.53;;;23.08;;
3369;SDS011;42042;51.948;7.628;2023-02-11T05:02:47;38.22;;;22.52;;
3369;SDS011;42042;51.948;7.628;2023-02-11T05:05:15;36.33;;;23.90;;
3369;SDS011;42042;51.948;7.628;2023-02-11T05:07:42;37.00;;;23.58;;
3369;SDS011;42042;51.948;7.628;2023-02-11T05:10:09;35.30;;;19.63;;
3369;SDS011;42042;51.948;7.628;2023-02-11T05:12:37;27.20;;;17.05;;
3369;SDS011;42042;51.948;7.628;2023-02-11T05:15:04;31.92;;;21.88;;
3369;SDS011;42042;51.948;7.628;2023-02-11T05:17:32;35.13;;;20.42;;
3369;SDS011;42042;51.948;7.628;2023-02-11T05:19:59;39.72;;;23.23;;
3369;SDS011;42042;51.948;7.628;2023-02-11T05:22:27;35.10;;;22.48;;
3369;SDS011;42042;51.948;7.628;2023-02-11T05:24:54;33.22;;;20.27;;
3369;SDS011;42042;51.948;7.628;2023-02-11T05:27:22;24.45;;;15.00;;
3369;SDS011;42042;51.948;7.628;2023-02-11T05:29:49;34.53;;;22.70;;
3369;SDS011;42042;51.948;7.628;2023-02-11T05:32:16;40.13;;;19.88;;
3369;SDS011;42042;51.948;7.628;2023-02-11T05:34:43;32.97;;;20.40;;
3369;SDS011;42042;51.948;7.628;2023-02-11T05:37:10;45.78;;;22.58;;
3369;SDS011;42042;51.948;7.628;2023-02-11T05:39:39;32.00;;;21.05;;
3369;SDS011;42042;51.948;7.628;2023-02-11T05:42:06;39.22;;;20.27;;
3369;SDS011;42042;51.948;7.628;2023-02-11T05:44:33;32.53;;;21.05;;
3369;SDS011;42042;51.948;7.628;2023-02-11T05:47:00;32.72;;;22.17;;
3369;SDS011;42042;51.948;7.628;2023-02-11T05:49:28;32.20;;;21.63;;
3369;SDS011;42042;51.948;7.628;2023-02-11T05:51:55;34.03;;;21.77;;
3369;SDS011;42042;51.948;7.628;2023-02-11T05:54:22;39.15;;;22.10;;
3369;SDS011;42042;51.948;7.628;2023-02-11T05:56:51;31.63;;;21.73;;
3369;SDS011;42042;51.948;7.628;2023-02-11T05:59:18;37.08;;;24.27;;
3369;SDS011;42042;51.948;7.628;2023-02-11T06:01:45;31.85;;;22.35;;
3369;SDS011;42042;51.948;7.628;2023-02-11T06:04:12;35.30;;;22.70;;
3369;SDS011;42042;51.948;7.628;2023-02-11T06:06:40;33.75;;;21.63;;
3369;SDS011;42042;51.948;7.628;2023-02-11T06:09:07;36.10;;;23.42;;
3369;SDS011;42042;51.948;7.628;2023-02-11T06:11:34;43.40;;;24.33;;
3369;SDS011;42042;51.948;7.628;2023-02-11T06:14:03;36.05;;;22.23;;
3369;SDS011;42042;51.948;7.628;2023-02-11T06:16:30;36.47;;;24.27;;
3369;SDS011;42042;51.948;7.628;2023-02-11T06:18:57;43.83;;;26.15;;
3369;SDS011;42042;51.948;7.628;2023-02-11T06:21:25;38.42;;;22.63;;
3369;SDS011;42042;51.948;7.628;2023-02-11T06:23:52;38.45;;;24.10;;
3369;SDS011;42042;51.948;7.628;2023-02-11T06:26:19;38.00;;;23.73;;
3369;SDS011;42042;51.948;7.628;2023-02-11T06:28:47;44.28;;;22.67;;
3369;SDS011;42042;51.948;7.628;2023-02-11T06:31:16;39.67;;;25.67;;
3369;SDS011;42042;51.948;7.628;2023-02-11T06:33:43;38.15;;;26.55;;
3369;SDS011;42042;51.948;7.628;2023-02-11T06:36:11;38.75;;;25.70;;
3369;SDS011;42042;51.948;7.628;2023-02-11T06:38:40;36.25;;;24.40;;
3369;SDS011;42042;51.948;7.628;2023-02-11T06:41:08;50.83;;;25.35;;
3369;SDS011;42042;51.948;7.628;2023-02-11T06:43:35;39.17;;;25.52;;
3369;SDS011;42042;51.948;7.628;2023-02-11T06:46:02;37.25;;;25.20;;
3369;SDS011;42042;51.948;7.628;2023-02-11T06:48:31;41.78;;;25.65;;
3369;SDS011;42042;51.948;7.628;2023-02-11T06:51:00;53.20;;;25.88;;
3369;SDS011;42042;51.948;7.628;2023-02-11T06:53:27;42.45;;;25.55;;
3369;SDS011;42042;51.948;7.628;2023-02-11T06:55:54;46.95;;;28.67;;
3369;SDS011;42042;51.948;7.628;2023-02-11T06:58:21;37.97;;;24.92;;
3369;SDS011;42042;51.948;7.628;2023-02-11T07:00:49;45.53;;;25.45;;
3369;SDS011;42042;51.948;7.628;2023-02-11T07:03:16;46.35;;;27.77;;
3369;SDS011;42042;51.948;7.628;2023-02-11T07:05:45;43.50;;;28.05;;
3369;SDS011;42042;51.948;7.628;2023-02-11T07:08:12;50.10;;;26.73;;
3369;SDS011;42042;51.948;7.628;2023-02-11T07:10:40;41.33;;;26.98;;
3369;SDS011;42042;51.948;7.628;2023-02-11T07:13:07;43.33;;;26.83;;
3369;SDS011;42042;51.948;7.628;2023-02-11T07:15:35;39.50;;;25.60;;
3369;SDS011;42042;51.948;7.628;2023-02-11T07:18:02;40.40;;;24.50;;
3369;SDS011;42042;51.948;7.628;2023-02-11T07:20:29;46.95;;;26.27;;
3369;SDS011;42042;51.948;7.628;2023-02-11T07:22:58;54.10;;;26.48;;
3369;SDS011;42042;51.948;7.628;2023-02-11T07:25:25;44.75;;;28.90;;
3369;SDS011;42042;51.948;7.628;2023-02-11T07:27:52;46.88;;;26.70;;
3369;SDS011;42042;51.948;7.628;2023-02-11T07:30:20;48.67;;;28.85;;
3369;SDS011;42042;51.948;7.628;2023-02-11T07:32:47;45.47;;;26.95;;
3369;SDS011;42042;51.948;7.628;2023-02-11T07:35:14;45.33;;;26.30;;
3369;SDS011;42042;51.948;7.628;2023-02-11T07:37:41;48.97;;;28.05;;
3369;SDS011;42042;51.948;7.628;2023-02-11T07:40:10;54.53;;;29.70;;
3369;SDS011;42042;51.948;7.628;2023-02-11T07:42:37;47.55;;;28.27;;
3369;SDS011;42042;51.948;7.628;2023-02-11T07:45:06;51.50;;;29.05;;
3369;SDS011;42042;51.948;7.628;2023-02-11T07:47:33;46.10;;;28.15;;
3369;SDS011;42042;51.948;7.628;2023-02-11T07:50:01;50.92;;;26.20;;
3369;SDS011;42042;51.948;7.628;2023-02-11T07:52:28;46.00;;;24.73;;
3369;SDS011;42042;51.948;7.628;2023-02-11T07:54:55;46.03;;;27.60;;
3369;SDS011;42042;51.948;7.628;2023-02-11T07:57:24;39.90;;;21.60;;
3369;SDS011;42042;51.948;7.628;2023-02-11T07:59:51;47.03;;;31.30;;
3369;SDS011;42042;51.948;7.628;2023-02-11T08:02:18;50.72;;;28.50;;
3369;SDS011;42042;51.948;7.628;2023-02-11T08:04:46;56.58;;;30.38;;
3369;SDS011;42042;51.948;7.628;2023-02-11T08:07:13;45.17;;;25.55;;
3369;SDS011;42042;51.948;7.628;2023-02-11T08:09:41;52.15;;;25.27;;
3369;SDS011;42042;51.948;7.628;2023-02-11T08:12:08;51.10;;;29.38;;
3369;SDS011;42042;51.948;7.628;2023-02-11T08:14:37;49.67;;;26.15;;
3369;SDS011;42042;51.948;7.628;2023-02-11T08:17:04;52.75;;;29.20;;
3369;SDS011;42042;51.948;7.628;2023-02-11T08:19:31;60.35;;;27.98;;
3369;SDS011;42042;51.948;7.628;2023-02-11T08:21:58;44.88;;;27.83;;
3369;SDS011;42042;51.948;7.628;2023-02-11T08:24:26;47.42;;;26.13;;
3369;SDS011;42042;51.948;7.628;2023-02-11T08:26:53;44.95;;;28.77;;
3369;SDS011;42042;51.948;7.628;2023-02-11T08:29:20;48.08;;;27.70;;
3369;SDS011;42042;51.948;7.628;2023-02-11T08:31:49;39.55;;;22.42;;
3369;SDS011;42042;51.948;7.628;2023-02-11T08:34:16;45.92;;;26.15;;
3369;SDS011;42042;51.948;7.628;2023-02-11T08:36:44;50.42;;;29.50;;
3369;SDS011;42042;51.948;7.628;2023-02-11T08:39:12;55.05;;;29.42;;
3369;SDS011;42042;51.948;7.628;2023-02-11T08:41:40;52.55;;;28.02;;
3369;SDS011;42042;51.948;7.628;2023-02-11T08:44:07;51.00;;;28.70;;
3369;SDS011;42042;51.948;7.628;2023-02-11T08:46:35;56.67;;;29.35;;
3369;SDS011;42042;51.948;7.628;2023-02-11T08:49:03;56.72;;;28.98;;
3369;SDS011;42042;51.948;7.628;2023-02-11T08:51:31;46.38;;;28.05;;
3369;SDS011;42042;51.948;7.628;2023-02-11T08:53:58;49.55;;;27.23;;
3369;SDS011;42042;51.948;7.628;2023-02-11T08:56:26;50.78;;;29.60;;
3369;SDS011;42042;51.948;7.628;2023-02-11T08:58:55;51.83;;;25.10;;
3369;SDS011;42042;51.948;7.628;2023-02-11T09:01:23;54.88;;;28.45;;
3369;SDS011;42042;51.948;7.628;2023-02-11T09:03:50;52.78;;;27.20;;
3369;SDS011;42042;51.948;7.628;2023-02-11T09:06:19;49.83;;;26.58;;
3369;SDS011;42042;51.948;7.628;2023-02-11T09:08:47;43.13;;;25.98;;
3369;SDS011;42042;51.948;7.628;2023-02-11T09:11:15;57.97;;;29.88;;
3369;SDS011;42042;51.948;7.628;2023-02-11T09:13:42;59.92;;;29.27;;
3369;SDS011;42042;51.948;7.628;2023-02-11T09:16:14;42.55;;;26.55;;
3369;SDS011;42042;51.948;7.628;2023-02-11T09:18:42;48.63;;;24.92;;
3369;SDS011;42042;51.948;7.628;2023-02-11T09:21:09;55.80;;;27.77;;
3369;SDS011;42042;51.948;7.628;2023-02-11T09:23:38;55.50;;;29.48;;
3369;SDS011;42042;51.948;7.628;2023-02-11T09:26:08;51.15;;;28.90;;
3369;SDS011;42042;51.948;7.628;2023-02-11T09:28:35;57.05;;;28.25;;
3369;SDS011;42042;51.948;7.628;2023-02-11T09:31:03;42.85;;;26.38;;
3369;SDS011;42042;51.948;7.628;2023-02-11T09:33:31;52.00;;;29.00;;
3369;SDS011;42042;51.948;7.628;2023-02-11T09:35:59;56.63;;;28.88;;
3369;SDS011;42042;51.948;7.628;2023-02-11T09:38:26;55.67;;;26.95;;
3369;SDS011;42042;51.948;7.628;2023-02-11T09:40:55;52.67;;;28.27;;
3369;SDS011;42042;51.948;7.628;2023-02-11T09:43:23;54.08;;;29.92;;
3369;SDS011;42042;51.948;7.628;2023-02-11T09:45:53;50.63;;;27.38;;
3369;SDS011;42042;51.948;7.628;2023-02-11T09:48:20;65.25;;;31.02;;
3369;SDS011;42042;51.948;7.628;2023-02-11T09:50:49;53.92;;;30.60;;
3369;SDS011;42042;51.948;7.628;2023-02-11T09:53:18;52.80;;;31.92;;
3369;SDS011;42042;51.948;7.628;2023-02-11T09:55:47;59.10;;;30.58;;
3369;SDS011;42042;51.948;7.628;2023-02-11T09:58:21;55.53;;;30.40;;
3369;SDS011;42042;51.948;7.628;2023-02-11T10:00:51;48.83;;;29.00;;
3369;SDS011;42042;51.948;7.628;2023-02-11T10:03:25;56.33;;;29.52;;
3369;SDS011;42042;51.948;7.628;2023-02-11T10:06:10;52.05;;;30.08;;
3369;SDS011;42042;51.948;7.628;2023-02-11T10:08:40;52.30;;;30.10;;
3369;SDS011;42042;51.948;7.628;2023-02-11T10:13:48;49.13;;;31.75;;
3369;SDS011;42042;51.948;7.628;2023-02-11T10:16:26;53.35;;;30.52;;
3369;SDS011;42042;51.948;7.628;2023-02-11T10:19:02;41.75;;;23.02;;
3369;SDS011;42042;51.948;7.628;2023-02-11T10:21:35;64.40;;;28.55;;
3369;SDS011;42042;51.948;7.628;2023-02-11T10:24:11;70.32;;;31.77;;
3369;SDS011;42042;51.948;7.628;2023-02-11T10:26:39;54.45;;;28.38;;
3369;SDS011;42042;51.948;7.628;2023-02-11T10:29:13;55.85;;;31.08;;
3369;SDS011;42042;51.948;7.628;2023-02-11T10:31:41;47.22;;;27.73;;
3369;SDS011;42042;51.948;7.628;2023-02-11T10:34:10;45.72;;;25.73;;
3369;SDS011;42042;51.948;7.628;2023-02-11T10:36:39;48.00;;;27.85;;
3369;SDS011;42042;51.948;7.628;2023-02-11T10:39:10;57.90;;;30.13;;
3369;SDS011;42042;51.948;7.628;2023-02-11T10:41:39;49.25;;;29.00;;
3369;SDS011;42042;51.948;7.628;2023-02-11T10:44:11;53.55;;;29.35;;
3369;SDS011;42042;51.948;7.628;2023-02-11T10:46:40;54.60;;;31.25;;
3369;SDS011;42042;51.948;7.628;2023-02-11T10:49:07;57.58;;;27.95;;
3369;SDS011;42042;51.948;7.628;2023-02-11T10:51:35;63.50;;;33.50;;
3369;SDS011;42042;51.948;7.628;2023-02-11T10:54:09;50.47;;;27.92;;
3369;SDS011;42042;51.948;7.628;2023-02-11T10:56:39;53.45;;;31.67;;
3369;SDS011;42042;51.948;7.628;2023-02-11T10:59:11;53.97;;;28.88;;
3369;SDS011;42042;51.948;7.628;2023-02-11T11:01:42;52.03;;;30.13;;
3369;SDS011;42042;51.948;7.628;2023-02-11T11:07:09;65.38;;;31.98;;
3369;SDS011;42042;51.948;7.628;2023-02-11T11:09:42;46.33;;;25.77;;
3369;SDS011;42042;51.948;7.628;2023-02-11T11:12:17;58.60;;;28.77;;
3369;SDS011;42042;51.948;7.628;2023-02-11T11:14:53;55.47;;;30.00;;
3369;SDS011;42042;51.948;7.628;2023-02-11T11:17:21;54.80;;;30.67;;
3369;SDS011;42042;51.948;7.628;2023-02-11T11:19:53;55.00;;;29.47;;
3369;SDS011;42042;51.948;7.628;2023-02-11T11:22:20;58.60;;;30.65;;
3369;SDS011;42042;51.948;7.628;2023-02-11T11:24:48;53.17;;;29.88;;
3369;SDS011;42042;51.948;7.628;2023-02-11T11:27:19;74.70;;;32.80;;
3369;SDS011;42042;51.948;7.628;2023-02-11T11:29:47;60.00;;;31.63;;
3369;SDS011;42042;51.948;7.628;2023-02-11T11:32:17;61.17;;;33.57;;
3369;SDS011;42042;51.948;7.628;2023-02-11T11:34:49;49.20;;;27.52;;
3369;SDS011;42042;51.948;7.628;2023-02-11T11:37:19;55.37;;;29.13;;
3369;SDS011;42042;51.948;7.628;2023-02-11T11:39:54;65.93;;;31.02;;
3369;SDS011;42042;51.948;7.628;2023-02-11T11:42:23;61.33;;;32.28;;
3369;SDS011;42042;51.948;7.628;2023-02-11T11:44:54;53.60;;;32.87;;
3369;SDS011;42042;51.948;7.628;2023-02-11T11:47:32;60.20;;;31.90;;
3369;SDS011;42042;51.948;7.628;2023-02-11T11:52:47;57.57;;;31.40;;
3369;SDS011;42042;51.948;7.628;2023-02-11T11:55:16;63.05;;;32.88;;
3369;SDS011;42042;51.948;7.628;2023-02-11T11:57:44;60.53;;;32.30;;
3369;SDS011;42042;51.948;7.628;2023-02-11T12:00:16;58.67;;;31.55;;
3369;SDS011;42042;51.948;7.628;2023-02-11T12:05:41;57.35;;;30.83;;
3369;SDS011;42042;51.948;7.628;2023-02-11T12:08:12;70.38;;;34.45;;
3369;SDS011;42042;51.948;7.628;2023-02-11T12:10:50;58.60;;;32.50;;
3369;SDS011;42042;51.948;7.628;2023-02-11T12:13:23;54.83;;;31.10;;
3369;SDS011;42042;51.948;7.628;2023-02-11T12:15:54;54.90;;;31.83;;
3369;SDS011;42042;51.948;7.628;2023-02-11T12:18:29;54.70;;;29.48;;
3369;SDS011;42042;51.948;7.628;2023-02-11T12:21:09;57.70;;;28.52;;
3369;SDS011;42042;51.948;7.628;2023-02-11T12:23:43;60.05;;;31.05;;
3369;SDS011;42042;51.948;7.628;2023-02-11T12:26:15;53.22;;;32.47;;
3369;SDS011;42042;51.948;7.628;2023-02-11T12:28:48;58.55;;;33.40;;
3369;SDS011;42042;51.948;7.628;2023-02-11T12:31:24;59.08;;;33.10;;
3369;SDS011;42042;51.948;7.628;2023-02-11T12:33:57;53.90;;;32.25;;
3369;SDS011;42042;51.948;7.628;2023-02-11T12:36:28;56.77;;;32.80;;
3369;SDS011;42042;51.948;7.628;2023-02-11T12:39:04;62.93;;;32.10;;
3369;SDS011;42042;51.948;7.628;2023-02-11T12:41:40;52.28;;;29.58;;
3369;SDS011;42042;51.948;7.628;2023-02-11T12:44:30;49.93;;;30.00;;
3369;SDS011;42042;51.948;7.628;2023-02-11T12:47:02;51.47;;;32.43;;
3369;SDS011;42042;51.948;7.628;2023-02-11T12:49:40;52.45;;;32.47;;
3369;SDS011;42042;51.948;7.628;2023-02-11T12:52:19;58.08;;;30.88;;
3369;SDS011;42042;51.948;7.628;2023-02-11T12:54:53;51.03;;;29.20;;
3369;SDS011;42042;51.948;7.628;2023-02-11T12:57:23;55.28;;;33.30;;
3369;SDS011;42042;51.948;7.628;2023-02-11T12:59:53;60.53;;;32.40;;
3369;SDS011;42042;51.948;7.628;2023-02-11T13:02:25;54.90;;;30.60;;
3369;SDS011;42042;51.948;7.628;2023-02-11T13:04:54;50.03;;;30.27;;
3369;SDS011;42042;51.948;7.628;2023-02-11T13:07:24;51.37;;;29.70;;
3369;SDS011;42042;51.948;7.628;2023-02-11T13:09:57;57.97;;;30.57;;
3369;SDS011;42042;51.948;7.628;2023-02-11T13:12:26;56.72;;;30.35;;
3369;SDS011;42042;51.948;7.628;2023-02-11T13:15:13;64.85;;;30.95;;
3369;SDS011;42042;51.948;7.628;2023-02-11T13:17:43;59.67;;;31.10;;
3369;SDS011;42042;51.948;7.628;2023-02-11T13:20:17;52.90;;;31.57;;
3369;SDS011;42042;51.948;7.628;2023-02-11T13:22:49;53.83;;;33.90;;
3369;SDS011;42042;51.948;7.628;2023-02-11T13:25:24;61.93;;;32.17;;
3369;SDS011;42042;51.948;7.628;2023-02-11T13:27:56;52.47;;;31.87;;
3369;SDS011;42042;51.948;7.628;2023-02-11T13:30:25;51.27;;;30.47;;
3369;SDS011;42042;51.948;7.628;2023-02-11T13:33:01;52.73;;;30.87;;
3369;SDS011;42042;51.948;7.628;2023-02-11T13:35:30;54.08;;;31.10;;
3369;SDS011;42042;51.948;7.628;2023-02-11T13:37:57;58.07;;;33.00;;
3369;SDS011;42042;51.948;7.628;2023-02-11T13:40:34;49.43;;;31.63;;
3369;SDS011;42042;51.948;7.628;2023-02-11T13:43:02;47.30;;;29.47;;
3369;SDS011;42042;51.948;7.628;2023-02-11T13:45:31;47.63;;;30.37;;
3369;SDS011;42042;51.948;7.628;2023-02-11T13:48:00;50.17;;;29.17;;
3369;SDS011;42042;51.948;7.628;2023-02-11T13:50:28;42.70;;;29.40;;
3369;SDS011;42042;51.948;7.628;2023-02-11T13:52:58;50.67;;;27.13;;
3369;SDS011;42042;51.948;7.628;2023-02-11T13:55:28;49.57;;;28.40;;
3369;SDS011;42042;51.948;7.628;2023-02-11T14:00:43;46.17;;;29.43;;
3369;SDS011;42042;51.948;7.628;2023-02-11T14:03:21;50.47;;;30.37;;
3369;SDS011;42042;51.948;7.628;2023-02-11T14:06:11;44.40;;;28.27;;
3369;SDS011;42042;51.948;7.628;2023-02-11T14:09:04;46.28;;;27.52;;
3369;SDS011;42042;51.948;7.628;2023-02-11T14:11:44;40.63;;;24.57;;
3369;SDS011;42042;51.948;7.628;2023-02-11T14:14:16;37.93;;;23.90;;
3369;SDS011;42042;51.948;7.628;2023-02-11T14:19:32;44.83;;;27.57;;
3369;SDS011;42042;51.948;7.628;2023-02-11T14:22:00;44.83;;;27.17;;
3369;SDS011;42042;51.948;7.628;2023-02-11T14:24:44;54.40;;;27.50;;
3369;SDS011;42042;51.948;7.628;2023-02-11T14:27:16;43.97;;;26.97;;
3369;SDS011;42042;51.948;7.628;2023-02-11T14:29:47;44.47;;;26.53;;
3369;SDS011;42042;51.948;7.628;2023-02-11T14:32:19;43.87;;;27.50;;
3369;SDS011;42042;51.948;7.628;2023-02-11T14:34:50;42.87;;;22.90;;
3369;SDS011;42042;51.948;7.628;2023-02-11T14:37:21;48.80;;;28.60;;
3369;SDS011;42042;51.948;7.628;2023-02-11T14:39:53;39.93;;;25.03;;
3369;SDS011;42042;51.948;7.628;2023-02-11T14:42:24;47.57;;;23.83;;
3369;SDS011;42042;51.948;7.628;2023-02-11T14:44:53;45.50;;;25.53;;
3369;SDS011;42042;51.948;7.628;2023-02-11T14:47:22;37.73;;;25.10;;
3369;SDS011;42042;51.948;7.628;2023-02-11T14:49:51;42.20;;;26.60;;
3369;SDS011;42042;51.948;7.628;2023-02-11T14:52:21;41.17;;;23.83;;
3369;SDS011;42042;51.948;7.628;2023-02-11T14:54:51;41.10;;;24.93;;
3369;SDS011;42042;51.948;7.628;2023-02-11T14:57:24;40.77;;;25.77;;
3369;SDS011;42042;51.948;7.628;2023-02-11T14:59:53;37.40;;;24.10;;
3369;SDS011;42042;51.948;7.628;2023-02-11T15:02:23;38.10;;;24.10;;
3369;SDS011;42042;51.948;7.628;2023-02-11T15:04:54;32.28;;;22.77;;
3369;SDS011;42042;51.948;7.628;2023-02-11T15:07:22;34.70;;;23.80;;
3369;SDS011;42042;51.948;7.628;2023-02-11T15:09:51;36.27;;;26.00;;
3369;SDS011;42042;51.948;7.628;2023-02-11T15:12:22;40.93;;;24.80;;
3369;SDS011;42042;51.948;7.628;2023-02-11T15:14:51;46.77;;;27.03;;